Terminal Aerodrome Forecast
Issued by NWS Memphis, TN

Home | Current Version | Previous Version | Text Only | Print | Product List | Glossary On
Versions: 1 2 3 4 5 6 7 8 9 10
592
FTUS44 KMEG 251728
TAFJBR
TAF
KJBR 251728Z 2518/2618 19018G25KT P6SM FEW250
     FM260000 18012KT P6SM SCT250
     FM260800 18011KT P6SM BKN025
     FM261100 19013G20KT P6SM BKN015
     FM261500 19017G25KT P6SM BKN012=

USA.gov is the U.S. government's official web portal to all federal, state and local government web resources and services.